Portada
METAR-TAF:

METAR-TAF

Aeropuertos :

Aeropuerto de la Ciudad de Derry

Derry, Irlanda del Norte

latitud: 55-03N, longitud: 007-09W, altitud: 9 m

Observación

El informe se hizo hace 38 minutos, a las 14:20 UTC
Viento 9 kt del noreste
Temperatura 18°C
Humedad 77%
Presión 1010 hPa
Visibilidad 10 km o más
Escasas nubes a una altura de 2500 ft
Nubes dispersas a una altura de 4900 ft

METAR: EGAE 141420Z 04009KT 9999 FEW025 SCT049 18/14 Q1010

Hora: 15:58 (14:58 UTC)

Pronóstico

El informe se hizo hace 58 minutos, a las 14:00 UTC
Pronóstico válido del 14 a las 15 UTC al 14 a las 21 UTC
Viento 7 kt del noreste
Visibilidad 10 km o más
Escasas nubes a una altura de 1500 ft
Nubes dispersas a una altura de 3000 ft

TAF: EGAE 141400Z 1415/1421 05007KT 9999 FEW015 SCT030

Observaciones y pronósticos meteorológicos de más de 4000 aeropuertos (mensajes METAR y TAF).

Los puntos amarillos y rojos representan las estaciones disponibles.

Ponga el ratón en el punto deseado para ver el nombre de la estación.

Haga clic para ver las observaciones y los pronósticos meteorológicos.

Para cambiar el mapa : haga clic en los botones verdes con una cruz de color negro para hacer un zoom, en el botón verde con un guión para alejar o en las flechas verdes para mapas adyacentes.


METAR-TAF: